»·PEaware :: WAT387 KFAT-KSJC

WAT387 :: KFAT-KSJC

FLIGHT INFORMATION

Flight Status: Arrived
Operator:
Walker Air Transport
More flights by this operator :: More flights under this callsign
Pilot: Zuqi C. (19949)
Aircraft: CIRRUS SR-22 TURBO
(S22T)
More flights by this aircraft type
Origin: KFAT Fresno Yosemite Intl
United States
Destination: KSJC Mineta San Jose Intl
United States
More flights between these airports :: More routes between these airports
Route: +NTELL T331 VINCO
File this flight plan on PilotEdge
Remarks:
Altitude:
(Current/Filed)
8,000ft
Speed:
(Current/Filed)
172kts
Departed: 21-Nov-20 02:38 PM
Arrived: 21-Nov-20 03:24 PM
Distance/Time
Traveled:
111nm/0:45
Distance/Time
To Go:
Arrived

Flight Plot

Page will automatically refresh every two minutes.

Flight plan parsing failed; only flown route is shown


Map Options




Map Legend


Flown Route
Filed Route
Departure Airport
Arrival Airport
Navaid (VOR, NDB)
Fix

Horizontal Profiles

Position Reports

Time Latitude Longitude Heading Altitude Ground
Speed
21-Nov-20 14:26 36.775428 -119.724893 302 336ft 0kts
21-Nov-20 14:26 36.775428 -119.724893 302 336ft 0kts
21-Nov-20 14:27 36.775428 -119.724893 302 336ft 0kts
21-Nov-20 14:28 36.775696 -119.724598 93 336ft 7kts
21-Nov-20 14:29 36.775762 -119.722137 125 336ft 12kts
21-Nov-20 14:30 36.772954 -119.717232 124 336ft 16kts
21-Nov-20 14:31 36.770787 -119.713422 124 336ft 11kts
21-Nov-20 14:32 36.769538 -119.710411 345 336ft 3kts
21-Nov-20 14:33 36.769582 -119.710459 305 336ft 0kts
21-Nov-20 14:34 36.769582 -119.710459 305 336ft 0kts
21-Nov-20 14:35 36.769582 -119.710459 305 336ft 0kts
21-Nov-20 14:36 36.769613 -119.710515 310 336ft 1kts
21-Nov-20 14:37 36.775841 -119.719778 306 488ft 106kts
21-Nov-20 14:38 36.796663 -119.755384 304 1788ft 129kts
21-Nov-20 14:39 36.817439 -119.792429 304 2798ft 132kts
21-Nov-20 14:40 36.843177 -119.825061 316 3760ft 132kts
21-Nov-20 14:41 36.870554 -119.856369 316 4598ft 138kts
21-Nov-20 14:42 36.899289 -119.890913 291 5232ft 144kts
21-Nov-20 14:43 36.908742 -119.938529 282 5872ft 135kts
21-Nov-20 14:44 36.917348 -119.984371 281 6644ft 135kts
21-Nov-20 14:45 36.926001 -120.030897 281 7479ft 137kts
21-Nov-20 14:46 36.934940 -120.079218 281 8045ft 162kts
21-Nov-20 14:47 36.945930 -120.138542 281 8026ft 177kts
21-Nov-20 14:48 36.956605 -120.196344 281 8025ft 166kts
21-Nov-20 14:49 36.966930 -120.252511 281 8027ft 165kts
21-Nov-20 14:50 36.977206 -120.308609 281 8024ft 165kts
21-Nov-20 14:51 36.987484 -120.364834 282 8022ft 165kts
21-Nov-20 14:52 36.997703 -120.420888 282 8020ft 165kts
21-Nov-20 14:53 37.008182 -120.478346 280 8022ft 173kts
21-Nov-20 14:54 37.018932 -120.537792 281 8019ft 176kts
21-Nov-20 14:55 37.029779 -120.597836 281 8019ft 176kts
21-Nov-20 14:56 37.040578 -120.657785 280 8018ft 176kts
21-Nov-20 14:57 37.051388 -120.717967 281 8018ft 176kts
21-Nov-20 14:58 37.062144 -120.778060 281 8015ft 177kts
21-Nov-20 14:59 37.072864 -120.838130 281 8012ft 177kts
21-Nov-20 15:00 37.083692 -120.898667 281 8010ft 177kts
21-Nov-20 15:01 37.094440 -120.958941 282 8005ft 177kts
21-Nov-20 15:02 37.105193 -121.019473 282 7995ft 177kts
21-Nov-20 15:03 37.115891 -121.079897 283 7987ft 177kts
21-Nov-20 15:04 37.126499 -121.139950 284 7977ft 176kts
21-Nov-20 15:05 37.137081 -121.200002 285 7969ft 174kts
21-Nov-20 15:06 37.147504 -121.259286 285 7968ft 173kts
21-Nov-20 15:07 37.168207 -121.312420 305 7970ft 170kts
21-Nov-20 15:08 37.194077 -121.362373 305 7969ft 170kts
21-Nov-20 15:09 37.219881 -121.412241 305 7967ft 170kts
21-Nov-20 15:10 37.245730 -121.462300 305 7974ft 170kts
21-Nov-20 15:11 37.271362 -121.512554 296 7976ft 171kts
21-Nov-20 15:12 37.254537 -121.567916 233 7823ft 187kts
21-Nov-20 15:13 37.221115 -121.621627 233 6953ft 195kts
21-Nov-20 15:14 37.188084 -121.674684 232 6013ft 191kts
21-Nov-20 15:15 37.179145 -121.729691 320 4975ft 181kts
21-Nov-20 15:16 37.216013 -121.769684 320 3984ft 170kts
21-Nov-20 15:17 37.249904 -121.806602 320 3060ft 143kts
21-Nov-20 15:18 37.277310 -121.836506 319 2162ft 114kts
21-Nov-20 15:19 37.298298 -121.859436 319 1649ft 98kts
21-Nov-20 15:20 37.316831 -121.879696 319 1142ft 88kts
21-Nov-20 15:21 37.334270 -121.898778 318 678ft 85kts
21-Nov-20 15:22 37.351577 -121.917707 318 234ft 83kts
21-Nov-20 15:23 37.362338 -121.929529 311 65ft 14kts
21-Nov-20 15:24 37.362273 -121.930750 234 65ft 1kts
21-Nov-20 15:25 37.360780 -121.932052 136 65ft 7kts
21-Nov-20 15:26 37.358562 -121.929542 148 65ft 12kts
21-Nov-20 15:27 37.357730 -121.929701 229 65ft 0kts
21-Nov-20 15:28 37.357730 -121.929701 229 65ft 0kts
21-Nov-20 15:29 37.357730 -121.929701 229 65ft 0kts
21-Nov-20 15:30 37.357730 -121.929701 229 65ft 0kts
21-Nov-20 15:31 37.357730 -121.929702 229 65ft 0kts
21-Nov-20 15:32 37.357730 -121.929702 229 65ft 0kts

Navigation Log

Ident Type
Flight plan parsing failed, navigation log unavailable